Time;durP1;ratioP1;P1;durP2;ratioP2;P2;SDS_P1;SDS_P2;PMS_P1;PMS_P2;Temp;Humidity;BMP_temperature;BMP_pressure;BME280_temperature;BME280_humidity;BME280_pressure;Samples;Min_cycle;Max_cycle;Signal;HPM_P1;HPM_P2
2021/09/13 00:02:10;;;;;;;4.70;0.55;;;12.40;99.90;;;;;;5116137;28;20431;-72
2021/09/13 00:04:35;;;;;;;1.08;0.40;;;12.30;99.90;;;;;;5115745;28;20020;-76
2021/09/13 00:07:01;;;;;;;3.65;0.20;;;12.30;99.90;;;;;;5115785;28;20034;-76
2021/09/13 00:09:26;;;;;;;2.30;0.60;;;12.30;99.90;;;;;;5115558;28;20054;-76
2021/09/13 00:11:52;;;;;;;0.57;0.38;;;12.30;99.90;;;;;;5097068;28;20011;-77
2021/09/13 00:14:18;;;;;;;1.17;0.20;;;12.30;99.90;;;;;;5115319;28;20042;-77
2021/09/13 00:16:44;;;;;;;1.40;0.30;;;12.30;99.90;;;;;;5115191;28;20028;-77
2021/09/13 00:19:10;;;;;;;1.25;0.50;;;12.30;99.90;;;;;;5115280;28;20100;-77
2021/09/13 00:21:35;;;;;;;1.83;0.40;;;12.30;99.90;;;;;;5115618;28;20019;-76
2021/09/13 00:24:01;;;;;;;0.60;0.20;;;12.30;99.90;;;;;;5115204;28;20064;-77
2021/09/13 00:26:26;;;;;;;1.10;0.45;;;12.20;99.90;;;;;;5114963;28;20407;-77
2021/09/13 00:28:55;;;;;;;1.30;0.25;;;12.20;99.90;;;;;;5096996;28;20016;-77
2021/09/13 00:31:20;;;;;;;0.65;0.25;;;12.20;99.90;;;;;;5096806;28;20023;-77
2021/09/13 00:33:46;;;;;;;1.30;0.70;;;12.20;99.90;;;;;;5114347;28;20028;-76
2021/09/13 00:36:11;;;;;;;1.85;0.20;;;12.10;99.90;;;;;;5096831;28;20030;-77
2021/09/13 00:38:37;;;;;;;1.05;0.10;;;12.10;99.90;;;;;;5096638;28;20073;-76
2021/09/13 00:41:03;;;;;;;1.05;0.45;;;12.00;99.90;;;;;;5096669;28;20028;-76
2021/09/13 00:43:28;;;;;;;4.00;0.32;;;12.00;99.90;;;;;;5124904;22;20048;-73
2021/09/13 00:45:56;;;;;;;1.10;0.20;;;12.00;99.90;;;;;;5113069;22;20110;-72
2021/09/13 00:48:24;;;;;;;0.22;0.10;;;12.00;99.90;;;;;;5114163;28;20036;-74
2021/09/13 00:50:50;;;;;;;1.33;0.68;;;11.90;99.90;;;;;;5096806;28;20492;-74
2021/09/13 00:53:16;;;;;;;4.70;0.68;;;11.90;99.90;;;;;;5114986;28;20024;-77
2021/09/13 00:58:10;;;;;;;1.48;0.10;;;11.70;99.90;;;;;;5052969;28;20052;-74
2021/09/13 01:00:36;;;;;;;2.08;0.80;;;11.70;99.90;;;;;;5054385;28;20017;-73
2021/09/13 01:03:02;;;;;;;2.25;0.17;;;11.70;99.90;;;;;;5036186;28;20021;-73
2021/09/13 01:05:28;;;;;;;2.70;0.63;;;11.80;99.90;;;;;;5035728;28;20066;-73
2021/09/13 01:07:54;;;;;;;1.55;0.10;;;11.70;99.90;;;;;;5053906;28;20021;-73
2021/09/13 01:10:20;;;;;;;0.93;0.17;;;11.70;99.90;;;;;;5035663;28;20483;-73
2021/09/13 01:12:47;;;;;;;0.50;0.05;;;11.70;99.90;;;;;;5053480;28;20025;-73
2021/09/13 01:15:14;;;;;;;0.75;0.00;;;11.60;99.90;;;;;;5035659;28;20024;-72
2021/09/13 01:17:39;;;;;;;1.35;0.10;;;11.60;99.90;;;;;;5053404;28;20027;-75
2021/09/13 01:20:06;;;;;;;1.17;0.40;;;11.60;99.90;;;;;;5054318;28;20037;-72
2021/09/13 01:22:33;;;;;;;2.80;0.13;;;11.60;99.90;;;;;;5053478;28;20478;-72
2021/09/13 01:24:59;;;;;;;1.35;0.00;;;11.60;99.90;;;;;;5053322;28;20056;-72
2021/09/13 01:27:25;;;;;;;0.68;0.10;;;11.60;99.90;;;;;;5035499;28;20056;-72
2021/09/13 01:29:51;;;;;;;1.45;0.10;;;11.50;99.90;;;;;;5053358;28;20021;-72
2021/09/13 01:32:17;;;;;;;0.40;0.10;;;11.50;99.90;;;;;;5053594;28;20025;-72
2021/09/13 01:34:42;;;;;;;0.60;0.10;;;11.50;99.90;;;;;;5053197;28;20099;-72
2021/09/13 01:37:08;;;;;;;3.22;0.22;;;11.40;99.90;;;;;;5053217;28;20025;-72
2021/09/13 01:39:33;;;;;;;0.63;0.10;;;11.40;99.90;;;;;;5035346;28;20029;-75
2021/09/13 01:41:59;;;;;;;1.70;0.43;;;11.40;99.90;;;;;;5035789;28;20013;-72
2021/09/13 01:44:25;;;;;;;2.47;0.10;;;11.40;99.90;;;;;;5035924;28;20079;-72
2021/09/13 01:46:50;;;;;;;1.08;0.10;;;11.40;99.90;;;;;;5036043;28;20056;-72
2021/09/13 01:49:16;;;;;;;0.50;0.22;;;11.30;99.90;;;;;;5053354;28;20540;-74
2021/09/13 01:51:43;;;;;;;0.98;0.20;;;11.30;99.90;;;;;;5035624;28;20120;-73
2021/09/13 01:54:10;;;;;;;1.17;0.17;;;11.30;99.90;;;;;;5053446;28;20025;-72
2021/09/13 01:56:37;;;;;;;1.45;0.22;;;11.30;99.90;;;;;;5035448;28;20455;-74
2021/09/13 01:59:03;;;;;;;0.57;0.20;;;11.30;99.90;;;;;;5053331;28;20029;-74
2021/09/13 02:01:29;;;;;;;0.73;0.30;;;11.40;99.90;;;;;;5035621;28;20372;-74
2021/09/13 02:03:55;;;;;;;1.75;0.63;;;11.30;99.90;;;;;;5053030;28;20014;-73
2021/09/13 02:06:21;;;;;;;0.88;0.30;;;11.30;99.90;;;;;;5053286;28;20081;-73
2021/09/13 02:08:46;;;;;;;0.82;0.17;;;11.30;99.90;;;;;;5052855;28;20032;-73
2021/09/13 02:11:12;;;;;;;0.98;0.22;;;11.30;99.90;;;;;;5052989;28;20033;-73
2021/09/13 02:13:38;;;;;;;0.55;0.15;;;11.30;99.90;;;;;;5052935;28;20040;-73
2021/09/13 02:16:06;;;;;;;0.85;0.10;;;11.30;99.90;;;;;;5035319;28;20032;-73
2021/09/13 02:18:32;;;;;;;0.10;0.10;;;11.20;99.90;;;;;;5053321;28;20103;-72
2021/09/13 02:20:58;;;;;;;1.15;0.20;;;11.20;99.90;;;;;;5053062;28;20017;-73
2021/09/13 02:23:23;;;;;;;0.20;0.10;;;11.20;99.90;;;;;;5052835;28;20079;-73
2021/09/13 02:25:49;;;;;;;2.20;0.20;;;11.20;99.90;;;;;;5052798;28;20029;-72
2021/09/13 02:28:16;;;;;;;0.85;0.25;;;11.20;99.90;;;;;;5052727;28;20075;-72
2021/09/13 02:30:42;;;;;;;3.30;0.45;;;11.20;99.90;;;;;;5052871;28;20029;-73
2021/09/13 02:33:08;;;;;;;0.52;0.10;;;11.20;99.90;;;;;;5052707;28;20100;-73
2021/09/13 02:35:34;;;;;;;1.95;0.17;;;11.20;99.90;;;;;;5052777;28;20067;-73
2021/09/13 02:37:59;;;;;;;0.82;0.20;;;11.20;99.90;;;;;;5034789;28;20027;-75
2021/09/13 02:40:25;;;;;;;0.30;0.20;;;11.20;99.90;;;;;;5053255;28;20402;-77
2021/09/13 02:42:50;;;;;;;1.85;0.73;;;11.20;99.90;;;;;;5053242;28;20467;-74
2021/09/13 02:45:16;;;;;;;1.17;0.47;;;11.20;99.90;;;;;;5053008;28;20096;-74
2021/09/13 02:47:42;;;;;;;0.60;0.10;;;11.20;99.90;;;;;;5053437;28;20021;-74
2021/09/13 02:50:10;;;;;;;3.50;0.40;;;11.20;99.90;;;;;;5053183;28;20017;-74
2021/09/13 02:52:36;;;;;;;0.77;0.10;;;11.10;99.90;;;;;;5070412;22;20520;-74
2021/09/13 02:55:03;;;;;;;1.80;0.10;;;13.60;99.90;;;;;;5052939;28;20025;-74
2021/09/13 02:57:29;;;;;;;0.95;0.30;;;11.10;99.90;;;;;;5055444;28;20019;-75
2021/09/13 02:59:55;;;;;;;2.05;0.17;;;11.20;99.90;;;;;;5086968;22;20392;-74
2021/09/13 03:02:20;;;;;;;0.85;0.10;;;11.20;99.90;;;;;;5095455;28;20100;-76
2021/09/13 03:04:46;;;;;;;0.50;0.10;;;11.20;99.90;;;;;;5096797;28;20016;-72
2021/09/13 03:07:12;;;;;;;1.67;0.60;;;11.20;99.90;;;;;;5095418;28;20068;-75
2021/09/13 03:09:39;;;;;;;0.45;0.20;;;13.60;99.90;;;;;;5095253;28;20031;-76
2021/09/13 03:12:05;;;;;;;1.27;0.20;;;11.20;99.90;;;;;;5096484;28;20036;-74
2021/09/13 03:14:31;;;;;;;0.57;0.20;;;11.10;99.90;;;;;;5095537;28;20522;-74
2021/09/13 03:16:57;;;;;;;0.52;0.15;;;11.10;99.90;;;;;;5095511;28;20044;-75
2021/09/13 03:19:23;;;;;;;0.63;0.38;;;11.20;99.90;;;;;;5096179;28;20110;-75
2021/09/13 03:21:48;;;;;;;1.33;0.20;;;11.20;99.90;;;;;;5095119;28;20500;-77
2021/09/13 03:24:14;;;;;;;0.52;0.10;;;11.10;99.90;;;;;;5094846;28;20019;-77
2021/09/13 03:26:39;;;;;;;0.47;0.10;;;11.10;99.90;;;;;;5096068;28;20164;-77
2021/09/13 03:29:05;;;;;;;2.72;0.55;;;11.10;99.90;;;;;;5096183;28;20024;-77
2021/09/13 03:31:31;;;;;;;1.58;0.35;;;11.10;99.90;;;;;;5096233;28;20024;-76
2021/09/13 03:33:56;;;;;;;1.50;0.20;;;11.10;99.90;;;;;;5096215;28;20024;-79
2021/09/13 03:36:22;;;;;;;0.63;0.10;;;11.10;99.90;;;;;;5096267;28;20024;-77
2021/09/13 03:38:47;;;;;;;0.60;0.28;;;11.10;99.90;;;;;;5094720;28;20030;-76
2021/09/13 03:41:13;;;;;;;0.73;0.20;;;11.10;99.90;;;;;;5094616;28;20016;-76
2021/09/13 03:43:38;;;;;;;1.75;0.38;;;11.10;99.90;;;;;;5096013;28;20027;-79
2021/09/13 03:46:04;;;;;;;1.73;0.35;;;11.10;99.90;;;;;;5096047;28;20471;-76
2021/09/13 03:48:29;;;;;;;1.45;0.65;;;11.10;99.90;;;;;;5095031;28;20028;-77
2021/09/13 03:50:55;;;;;;;0.80;0.40;;;11.00;99.90;;;;;;5094762;28;20020;-77
2021/09/13 03:53:20;;;;;;;1.35;0.30;;;11.00;99.90;;;;;;5094092;28;20071;-74
2021/09/13 03:55:46;;;;;;;1.70;0.38;;;11.00;99.90;;;;;;5095216;28;20035;-74
2021/09/13 03:58:12;;;;;;;1.23;0.30;;;11.00;99.90;;;;;;5095138;28;20032;-74
2021/09/13 04:00:38;;;;;;;3.65;1.05;;;11.00;99.90;;;;;;5094352;28;20024;-76
2021/09/13 04:03:06;;;;;;;2.53;0.10;;;10.90;99.90;;;;;;5094222;28;20385;-74
2021/09/13 04:05:32;;;;;;;0.95;0.32;;;10.90;99.90;;;;;;5095560;28;20028;-75
2021/09/13 04:08:09;;;;;;;2.70;0.55;;;11.00;99.90;;;;;;5109580;22;20040;-74
2021/09/13 04:13:18;;;;;;;5.82;0.60;;;11.00;99.90;;;;;;5115965;28;20035;-75
2021/09/13 04:15:44;;;;;;;2.00;0.50;;;11.00;99.90;;;;;;5115510;28;20027;-74
2021/09/13 04:18:11;;;;;;;1.38;0.40;;;10.90;99.90;;;;;;5115122;28;20477;-74
2021/09/13 04:20:37;;;;;;;1.15;0.40;;;10.90;99.90;;;;;;5096978;28;20026;-74
2021/09/13 04:23:02;;;;;;;2.70;0.43;;;10.90;99.90;;;;;;5096705;28;20023;-74
2021/09/13 04:25:28;;;;;;;3.20;0.55;;;11.00;99.90;;;;;;5115606;28;20372;-74
2021/09/13 04:27:53;;;;;;;7.15;1.02;;;11.00;99.90;;;;;;5115000;28;20028;-74
2021/09/13 04:30:20;;;;;;;2.97;0.85;;;11.10;99.90;;;;;;5096630;28;20500;-74
2021/09/13 04:32:46;;;;;;;3.65;0.50;;;11.20;99.90;;;;;;5114953;28;20043;-73
2021/09/13 04:35:11;;;;;;;1.02;0.45;;;11.30;99.90;;;;;;5115203;28;20028;-74
2021/09/13 04:37:37;;;;;;;4.55;0.90;;;11.40;99.90;;;;;;5096663;28;20023;-74
2021/09/13 04:40:03;;;;;;;1.45;0.60;;;11.50;99.90;;;;;;5114725;28;20020;-74
2021/09/13 04:42:29;;;;;;;2.08;0.98;;;11.50;99.90;;;;;;5096465;28;20015;-74
2021/09/13 04:44:55;;;;;;;1.02;0.60;;;11.60;99.90;;;;;;5114798;28;20491;-74
2021/09/13 04:47:20;;;;;;;5.65;0.82;;;11.60;99.90;;;;;;5114974;28;20020;-75
2021/09/13 04:49:46;;;;;;;5.28;1.50;;;11.60;99.90;;;;;;5116112;22;20104;-73
2021/09/13 04:52:12;;;;;;;3.55;0.82;;;11.60;99.90;;;;;;5095008;28;20035;-74
2021/09/13 04:54:38;;;;;;;4.30;0.80;;;11.60;99.90;;;;;;5094324;28;20016;-72
2021/09/13 04:57:05;;;;;;;4.03;0.80;;;11.60;99.90;;;;;;5095026;28;20048;-75
2021/09/13 04:59:31;;;;;;;8.70;1.52;;;11.60;99.90;;;;;;5094823;28;20039;-77
2021/09/13 05:01:56;;;;;;;3.20;1.13;;;11.60;99.90;;;;;;5094596;28;20369;-76
2021/09/13 05:04:22;;;;;;;1.08;0.68;;;11.60;99.90;;;;;;5094066;28;20450;-75
2021/09/13 05:06:50;;;;;;;3.33;0.93;;;11.70;99.90;;;;;;5093650;28;20050;-76
2021/09/13 05:09:15;;;;;;;1.47;0.80;;;11.70;99.90;;;;;;5094042;28;20031;-76
2021/09/13 05:11:44;;;;;;;1.80;0.75;;;11.70;99.90;;;;;;5094260;28;20390;-76
2021/09/13 05:14:09;;;;;;;3.67;0.90;;;11.80;99.90;;;;;;5092762;28;20464;-76
2021/09/13 05:16:37;;;;;;;4.28;0.93;;;11.80;99.90;;;;;;5094361;28;20074;-76
2021/09/13 05:19:03;;;;;;;3.95;1.02;;;11.90;99.90;;;;;;5093509;28;20017;-76
2021/09/13 05:21:31;;;;;;;1.58;0.70;;;11.90;99.90;;;;;;5094336;28;20363;-75
2021/09/13 05:23:58;;;;;;;2.05;0.80;;;11.90;99.90;;;;;;5093915;28;20016;-75
2021/09/13 05:26:23;;;;;;;2.53;0.65;;;12.00;99.90;;;;;;5093638;28;20039;-76
2021/09/13 05:28:49;;;;;;;2.92;0.95;;;11.90;99.90;;;;;;5093682;28;20025;-76
2021/09/13 05:31:14;;;;;;;1.98;0.80;;;11.90;99.90;;;;;;5092498;28;20039;-76
2021/09/13 05:33:40;;;;;;;1.83;0.95;;;11.90;99.90;;;;;;5092515;28;20020;-74
2021/09/13 05:36:06;;;;;;;2.92;0.93;;;12.00;99.90;;;;;;5094292;28;20024;-74
2021/09/13 05:38:33;;;;;;;2.55;0.85;;;12.00;99.90;;;;;;5092001;28;20035;-75
2021/09/13 05:41:00;;;;;;;1.73;0.77;;;12.00;99.90;;;;;;5094850;28;20040;-72
2021/09/13 05:43:25;;;;;;;1.98;1.08;;;12.10;99.90;;;;;;5092190;28;20638;-74
2021/09/13 05:45:52;;;;;;;4.15;0.82;;;12.10;99.90;;;;;;5092304;28;20028;-73
2021/09/13 05:48:18;;;;;;;1.80;0.77;;;12.10;99.90;;;;;;5106870;22;20374;-72
2021/09/13 05:50:44;;;;;;;2.67;1.00;;;12.00;99.90;;;;;;5126266;22;20076;-74
2021/09/13 05:53:10;;;;;;;1.50;0.60;;;12.10;99.90;;;;;;5099993;22;20040;-73
2021/09/13 05:55:35;;;;;;;2.72;0.68;;;12.10;99.90;;;;;;5093560;28;20031;-75
2021/09/13 05:58:01;;;;;;;7.85;0.52;;;12.10;99.90;;;;;;5092827;28;20473;-74
2021/09/13 06:00:26;;;;;;;1.83;0.88;;;12.20;99.90;;;;;;5075035;28;20024;-74
2021/09/13 06:02:52;;;;;;;1.48;0.68;;;12.10;99.90;;;;;;5075244;28;20074;-75
2021/09/13 06:05:19;;;;;;;1.85;0.90;;;12.10;99.90;;;;;;5092742;28;20115;-75
2021/09/13 06:07:45;;;;;;;3.33;1.00;;;12.20;99.90;;;;;;5085942;22;20048;-73
2021/09/13 06:10:14;;;;;;;2.95;1.13;;;12.20;99.90;;;;;;5085877;22;20534;-74
2021/09/13 06:12:40;;;;;;;1.92;1.00;;;12.20;99.90;;;;;;5040545;28;20469;-75
2021/09/13 06:15:09;;;;;;;2.47;1.15;;;12.30;99.90;;;;;;5058490;28;20025;-74
2021/09/13 06:17:35;;;;;;;7.13;1.50;;;12.30;99.90;;;;;;5058464;28;20118;-75
2021/09/13 06:20:01;;;;;;;1.92;1.05;;;12.50;99.90;;;;;;5058466;28;20029;-73
2021/09/13 06:22:26;;;;;;;4.70;1.10;;;12.40;99.90;;;;;;5057655;28;20452;-74
2021/09/13 06:24:52;;;;;;;3.22;0.95;;;12.50;99.90;;;;;;5040457;28;20017;-75
2021/09/13 06:27:17;;;;;;;2.80;1.10;;;12.60;99.90;;;;;;5058511;28;20025;-75
2021/09/13 06:29:45;;;;;;;4.13;1.20;;;12.70;99.90;;;;;;5057953;28;20053;-75
2021/09/13 06:32:11;;;;;;;4.25;1.13;;;12.90;99.90;;;;;;5060198;28;20013;-74
2021/09/13 06:34:36;;;;;;;2.33;1.05;;;13.00;99.90;;;;;;5062254;28;20390;-74
2021/09/13 06:37:02;;;;;;;5.07;1.15;;;13.10;99.90;;;;;;5044604;28;20440;-75
2021/09/13 06:39:28;;;;;;;5.13;1.58;;;13.20;99.90;;;;;;5062343;28;20025;-72
2021/09/13 06:41:53;;;;;;;6.43;1.08;;;13.20;99.90;;;;;;5061392;28;20025;-72
2021/09/13 06:44:22;;;;;;;7.40;1.58;;;13.30;99.90;;;;;;5062073;28;20021;-72
2021/09/13 06:47:00;;;;;;;;;;;13.40;99.90;;;;;;5044448;28;20013;-72
2021/09/13 06:49:26;;;;;;;3.57;1.67;;;13.50;99.90;;;;;;5062425;28;19904;-73
2021/09/13 06:51:51;;;;;;;5.38;1.58;;;13.70;99.90;;;;;;5043875;28;20268;-73
2021/09/13 06:54:17;;;;;;;3.97;1.95;;;13.80;99.90;;;;;;5044529;28;20025;-73
2021/09/13 06:56:44;;;;;;;5.45;1.92;;;13.90;99.90;;;;;;5061821;28;20032;-73
2021/09/13 06:59:12;;;;;;;5.97;2.20;;;14.00;99.90;;;;;;5061354;28;20025;-72
2021/09/13 07:01:38;;;;;;;4.60;1.92;;;14.10;99.90;;;;;;5043152;28;20471;-73
2021/09/13 07:04:03;;;;;;;5.95;1.85;;;14.20;99.90;;;;;;5060772;28;20021;-73
2021/09/13 07:06:29;;;;;;;4.18;2.42;;;14.40;99.90;;;;;;5061621;28;20035;-73
2021/09/13 07:08:56;;;;;;;6.07;1.90;;;14.50;99.90;;;;;;5061032;28;20063;-72
2021/09/13 07:11:22;;;;;;;10.30;2.88;;;14.60;99.90;;;;;;5061296;28;20025;-72
2021/09/13 07:13:47;;;;;;;8.45;2.65;;;14.70;99.90;;;;;;5061386;28;20021;-72
2021/09/13 07:16:13;;;;;;;11.18;2.58;;;14.80;99.90;;;;;;5060797;28;20036;-72
2021/09/13 07:18:38;;;;;;;9.63;2.58;;;14.90;99.90;;;;;;5061055;28;20099;-72
2021/09/13 07:21:04;;;;;;;9.65;3.15;;;15.00;99.90;;;;;;5060977;28;20039;-72
2021/09/13 07:23:29;;;;;;;8.82;2.50;;;15.10;99.90;;;;;;5043224;28;20025;-73
2021/09/13 07:25:55;;;;;;;7.85;2.30;;;15.20;99.90;;;;;;5042871;28;20025;-72
2021/09/13 07:28:21;;;;;;;8.13;2.10;;;15.30;99.90;;;;;;5060406;28;20029;-72
2021/09/13 07:30:47;;;;;;;10.30;2.55;;;15.50;99.90;;;;;;5042916;28;20017;-73
2021/09/13 07:33:13;;;;;;;7.22;2.40;;;15.60;99.90;;;;;;5042596;28;20393;-72
2021/09/13 07:35:38;;;;;;;7.03;1.63;;;15.60;99.90;;;;;;5043088;28;20017;-72
2021/09/13 07:38:04;;;;;;;5.25;1.85;;;15.80;99.90;;;;;;5060949;28;20040;-73
2021/09/13 07:40:30;;;;;;;2.55;0.98;;;15.90;99.90;;;;;;5042771;28;20021;-73
2021/09/13 07:42:55;;;;;;;3.67;1.25;;;16.10;99.90;;;;;;5065620;28;20017;-72
2021/09/13 07:45:24;;;;;;;4.97;1.45;;;16.10;99.90;;;;;;5048165;28;20021;-72
2021/09/13 07:47:51;;;;;;;;;;;16.20;99.90;;;;;;5062418;28;20390;-73
2021/09/13 07:50:17;;;;;;;5.82;1.05;;;16.40;99.90;;;;;;5061794;28;19975;-72
2021/09/13 07:52:42;;;;;;;3.95;1.23;;;16.60;99.90;;;;;;5044670;28;20056;-73
2021/09/13 07:55:08;;;;;;;2.53;0.77;;;16.80;99.90;;;;;;5061406;28;20394;-72
2021/09/13 07:57:34;;;;;;;2.45;0.52;;;16.90;99.90;;;;;;5059596;28;20029;-73
2021/09/13 07:59:59;;;;;;;5.35;0.28;;;17.00;99.90;;;;;;5041501;28;20021;-73
2021/09/13 08:02:25;;;;;;;5.57;1.23;;;17.00;99.90;;;;;;5041928;28;20069;-72
2021/09/13 08:04:51;;;;;;;5.03;0.40;;;17.10;99.90;;;;;;5042191;28;20493;-73
2021/09/13 08:07:17;;;;;;;3.50;1.27;;;17.10;99.90;;;;;;5059524;28;20032;-72
2021/09/13 08:09:42;;;;;;;1.52;0.35;;;17.20;99.90;;;;;;5059473;28;20052;-72
2021/09/13 08:12:08;;;;;;;2.47;0.40;;;17.30;99.90;;;;;;5059305;28;20560;-72
2021/09/13 08:14:34;;;;;;;4.13;0.95;;;17.30;99.90;;;;;;5059352;28;20029;-73
2021/09/13 08:17:00;;;;;;;4.40;0.25;;;17.40;99.90;;;;;;5059685;28;20037;-72
2021/09/13 08:19:25;;;;;;;2.80;0.38;;;17.40;99.90;;;;;;5059501;28;20047;-72
2021/09/13 08:21:51;;;;;;;2.35;0.13;;;17.50;99.90;;;;;;5041697;28;20021;-72
2021/09/13 08:24:16;;;;;;;1.15;0.20;;;17.60;99.90;;;;;;5059981;28;20136;-72
2021/09/13 08:26:42;;;;;;;2.78;0.40;;;17.70;99.90;;;;;;5058712;28;20553;-72
2021/09/13 08:29:13;;;;;;;2.03;0.32;;;17.90;99.90;;;;;;5059601;28;20068;-72
2021/09/13 08:31:39;;;;;;;2.50;0.43;;;18.00;99.90;;;;;;5041410;28;20021;-72
2021/09/13 08:34:05;;;;;;;1.85;0.10;;;18.10;99.90;;;;;;5058871;28;20064;-73
2021/09/13 08:36:31;;;;;;;3.10;0.20;;;18.20;99.90;;;;;;5040810;28;20066;-72
2021/09/13 08:38:56;;;;;;;0.90;0.10;;;18.20;99.90;;;;;;5059119;28;20037;-72
2021/09/13 08:41:22;;;;;;;3.45;0.20;;;18.30;99.90;;;;;;5058106;28;20021;-72
2021/09/13 08:43:48;;;;;;;2.63;0.08;;;18.40;99.90;;;;;;5058457;28;20017;-72
2021/09/13 08:46:23;;;;;;;2.63;0.00;;;18.50;99.90;;;;;;5058277;28;20025;-72
2021/09/13 08:48:54;;;;;;;0.55;0.00;;;18.50;99.90;;;;;;5059498;28;20450;-73
2021/09/13 08:51:41;;;;;;;1.27;0.65;;;18.50;99.90;;;;;;5058627;28;20021;-72
2021/09/13 08:54:09;;;;;;;0.30;0.22;;;18.50;99.90;;;;;;5057594;28;20025;-72
2021/09/13 08:56:40;;;;;;;3.03;0.00;;;18.50;99.90;;;;;;5058082;28;20433;-73
2021/09/13 08:59:11;;;;;;;1.17;0.00;;;18.50;99.90;;;;;;5058550;28;20462;-73
2021/09/13 09:01:38;;;;;;;2.05;0.00;;;18.40;99.90;;;;;;5058249;28;20013;-72
2021/09/13 09:04:05;;;;;;;1.13;0.00;;;18.50;99.90;;;;;;5058208;28;20029;-73
2021/09/13 09:06:32;;;;;;;0.82;0.00;;;18.30;99.90;;;;;;5040687;28;20364;-73
2021/09/13 09:09:06;;;;;;;2.08;0.00;;;18.40;99.90;;;;;;5039812;28;20085;-73
2021/09/13 09:12:16;;;;;;;0.43;0.00;;;18.50;99.90;;;;;;5040382;28;20220;-73
2021/09/13 09:14:48;;;;;;;0.38;0.00;;;18.50;99.90;;;;;;5037428;28;20095;-73
2021/09/13 09:17:25;;;;;;;0.00;0.00;;;18.70;99.90;;;;;;5040401;28;20024;-73
2021/09/13 09:20:11;;;;;;;0.52;0.00;;;18.80;99.90;;;;;;5057813;28;20029;-73
2021/09/13 09:22:40;;;;;;;0.00;0.00;;;19.00;99.90;;;;;;5058003;28;20009;-73
2021/09/13 09:25:08;;;;;;;0.00;0.00;;;19.10;99.90;;;;;;5039472;28;20374;-73
2021/09/13 09:27:53;;;;;;;0.03;0.00;;;19.20;99.90;;;;;;5057926;28;20017;-73
2021/09/13 09:30:20;;;;;;;0.47;0.00;;;19.20;99.90;;;;;;5057634;28;20509;-72
2021/09/13 09:33:09;;;;;;;1.30;0.00;;;19.30;99.90;;;;;;5039771;28;20049;-73
2021/09/13 09:35:47;;;;;;;0.00;0.00;;;19.30;99.90;;;;;;5039911;28;20021;-72
2021/09/13 09:38:30;;;;;;;0.50;0.00;;;19.30;99.90;;;;;;5058159;28;20029;-72
2021/09/13 09:41:00;;;;;;;0.85;0.00;;;19.50;99.90;;;;;;5057626;28;20040;-72
2021/09/13 09:43:28;;;;;;;1.42;0.00;;;19.50;99.90;;;;;;5057192;28;20141;-72
2021/09/13 09:45:54;;;;;;;0.20;0.00;;;19.70;99.90;;;;;;5057318;28;20032;-73
2021/09/13 09:48:29;;;;;;;1.77;0.00;;;19.80;99.90;;;;;;5053605;28;20021;-75
2021/09/13 09:50:54;;;;;;;0.32;0.00;;;20.00;99.90;;;;;;5035709;28;20470;-74
2021/09/13 09:53:21;;;;;;;1.48;0.00;;;20.10;99.90;;;;;;5054222;28;20028;-74
2021/09/13 09:55:53;;;;;;;0.00;0.00;;;20.30;99.90;;;;;;5101158;22;20393;-73
2021/09/13 09:58:18;;;;;;;0.20;0.00;;;20.20;99.90;;;;;;5073219;28;20483;-74
2021/09/13 10:00:46;;;;;;;0.00;0.00;;;20.20;99.90;;;;;;5073512;28;20092;-75
2021/09/13 10:03:30;;;;;;;0.25;0.00;;;20.00;99.90;;;;;;5073395;28;20024;-74
2021/09/13 10:05:56;;;;;;;1.48;0.00;;;19.80;99.90;;;;;;5073903;28;20052;-72
2021/09/13 10:08:22;;;;;;;0.32;0.00;;;19.90;99.90;;;;;;5077323;28;20497;-74
2021/09/13 10:10:48;;;;;;;0.30;0.00;;;19.90;99.90;;;;;;5077465;28;20021;-73
2021/09/13 10:13:14;;;;;;;0.80;0.05;;;20.00;99.90;;;;;;5136772;22;20066;-73
2021/09/13 10:15:40;;;;;;;0.05;0.00;;;20.20;99.90;;;;;;5118003;28;20464;-74
2021/09/13 10:18:06;;;;;;;0.55;0.00;;;20.60;99.90;;;;;;5099749;28;20058;-72
2021/09/13 10:20:31;;;;;;;0.00;0.00;;;20.60;99.90;;;;;;5117899;28;20063;-72
2021/09/13 10:22:57;;;;;;;0.00;0.00;;;20.60;99.90;;;;;;5117890;28;20024;-72
2021/09/13 10:25:31;;;;;;;0.25;0.00;;;20.70;99.90;;;;;;5099146;28;20015;-72
2021/09/13 10:28:06;;;;;;;0.00;0.00;;;20.90;99.90;;;;;;5116711;28;20064;-73
2021/09/13 10:30:47;;;;;;;0.25;0.00;;;21.00;99.90;;;;;;5117625;28;20034;-73
2021/09/13 10:33:15;;;;;;;0.10;0.00;;;21.20;99.90;;;;;;5120639;28;20104;-76
2021/09/13 10:36:09;;;;;;;0.10;0.00;;;21.10;99.90;;;;;;5121831;28;20043;-73
2021/09/13 10:38:46;;;;;;;0.20;0.00;;;21.20;99.90;;;;;;5101822;28;20038;-74
2021/09/13 10:41:32;;;;;;;0.00;0.00;;;21.30;99.90;;;;;;5121725;28;20027;-74
2021/09/13 10:44:06;;;;;;;1.30;0.00;;;21.10;99.90;;;;;;5121401;28;20028;-74
2021/09/13 10:47:04;;;;;;;0.22;0.00;;;21.00;99.90;;;;;;5121979;28;20031;-74
2021/09/13 10:49:30;;;;;;;0.13;0.00;;;21.00;99.90;;;;;;5120198;28;20020;-74
2021/09/13 10:52:32;;;;;;;0.47;0.00;;;21.00;99.90;;;;;;5103204;28;20019;-74
2021/09/13 10:55:28;;;;;;;0.00;0.00;;;20.90;99.90;;;;;;5102312;28;20042;-74
2021/09/13 10:57:57;;;;;;;0.00;0.00;;;20.90;99.90;;;;;;5102366;28;20485;-74
2021/09/13 11:00:38;;;;;;;0.00;0.00;;;20.90;99.90;;;;;;5121362;28;20043;-74
2021/09/13 11:03:22;;;;;;;0.10;0.00;;;20.90;99.90;;;;;;5102677;28;20028;-75
2021/09/13 11:06:10;;;;;;;0.10;0.00;;;20.70;99.90;;;;;;5121232;28;20476;-74
2021/09/13 11:08:38;;;;;;;0.05;0.00;;;20.70;99.90;;;;;;5093139;28;20039;-73
2021/09/13 11:11:33;;;;;;;0.13;0.00;;;20.70;99.90;;;;;;5119356;28;20023;-73
2021/09/13 11:14:01;;;;;;;0.30;0.00;;;20.50;99.90;;;;;;5120767;28;20279;-73
2021/09/13 11:16:28;;;;;;;0.00;0.00;;;20.40;99.90;;;;;;5121169;28;20040;-73
2021/09/13 11:18:54;;;;;;;1.10;0.00;;;20.30;99.90;;;;;;5120523;28;20023;-74
2021/09/13 11:21:24;;;;;;;1.08;0.20;;;20.10;99.90;;;;;;5120809;28;20027;-74
2021/09/13 11:23:56;;;;;;;3.15;0.00;;;20.00;99.90;;;;;;5120983;28;20039;-74
2021/09/13 11:26:42;;;;;;;2.08;0.00;;;20.00;99.90;;;;;;5120543;28;20020;-74
2021/09/13 11:29:41;;;;;;;0.50;0.00;;;20.00;99.90;;;;;;5121027;28;20024;-73
2021/09/13 11:32:12;;;;;;;0.52;0.00;;;20.00;99.90;;;;;;5107571;28;20043;-74
2021/09/13 11:34:46;;;;;;;1.63;0.00;;;20.20;99.90;;;;;;5102732;28;20016;-72
2021/09/13 11:37:26;;;;;;;0.20;0.10;;;20.30;99.90;;;;;;5120901;28;20028;-76
2021/09/13 11:39:53;;;;;;;0.38;0.00;;;20.50;99.90;;;;;;5102282;28;20020;-74
2021/09/13 11:42:24;;;;;;;0.30;0.00;;;20.80;99.90;;;;;;5120574;28;20400;-74
2021/09/13 11:44:53;;;;;;;0.50;0.00;;;21.00;99.90;;;;;;5102453;28;20033;-74
2021/09/13 11:47:21;;;;;;;0.30;0.00;;;20.90;99.90;;;;;;5102115;28;20050;-74
2021/09/13 11:49:52;;;;;;;1.08;0.00;;;20.90;99.90;;;;;;5120414;28;20023;-74
2021/09/13 11:52:29;;;;;;;1.60;0.10;;;20.90;99.90;;;;;;5120934;28;20032;-74
2021/09/13 11:55:03;;;;;;;0.43;0.00;;;20.80;99.90;;;;;;5102153;28;20081;-74
2021/09/13 11:57:40;;;;;;;4.43;0.00;;;20.80;99.90;;;;;;5120517;28;20485;-75
2021/09/13 12:00:09;;;;;;;0.63;0.00;;;20.70;99.90;;;;;;5120941;28;20522;-75
2021/09/13 12:02:38;;;;;;;0.00;0.00;;;20.50;99.90;;;;;;5119393;28;20012;-75
2021/09/13 12:05:34;;;;;;;1.75;0.00;;;20.40;99.90;;;;;;5101917;28;20380;-75
2021/09/13 12:08:02;;;;;;;2.25;0.00;;;20.50;99.90;;;;;;5120156;28;20491;-75
2021/09/13 12:10:31;;;;;;;0.88;0.00;;;20.50;99.90;;;;;;5120593;28;20012;-74
2021/09/13 12:13:01;;;;;;;0.47;0.00;;;20.70;99.90;;;;;;5101489;28;20027;-74
2021/09/13 12:15:32;;;;;;;0.70;0.00;;;20.90;99.90;;;;;;5120769;28;20118;-74
2021/09/13 12:18:02;;;;;;;0.55;0.00;;;22.10;99.90;;;;;;5119839;28;20043;-74
2021/09/13 12:20:34;;;;;;;0.00;0.00;;;21.30;99.90;;;;;;5120479;28;20032;-74
2021/09/13 12:23:05;;;;;;;0.00;0.00;;;21.30;99.90;;;;;;5120016;28;20390;-74
2021/09/13 12:25:39;;;;;;;0.85;0.00;;;21.40;99.90;;;;;;5120143;28;20015;-75
2021/09/13 12:28:07;;;;;;;0.38;0.10;;;21.50;99.90;;;;;;5118733;28;20073;-72
2021/09/13 12:30:38;;;;;;;0.55;0.00;;;21.60;99.90;;;;;;5118728;28;20031;-73
2021/09/13 12:33:11;;;;;;;0.52;0.00;;;21.70;99.90;;;;;;5120082;28;20031;-73
2021/09/13 12:35:38;;;;;;;0.00;0.00;;;21.90;99.90;;;;;;5120492;28;20481;-73
2021/09/13 12:38:10;;;;;;;0.17;0.05;;;22.00;99.90;;;;;;5119702;28;20425;-73
2021/09/13 12:40:58;;;;;;;1.35;0.00;;;22.20;99.90;;;;;;5119504;28;20103;-73
2021/09/13 12:43:28;;;;;;;3.53;0.00;;;22.40;99.90;;;;;;5120447;28;20061;-72
2021/09/13 12:46:10;;;;;;;0.43;0.00;;;22.70;99.90;;;;;;5119529;28;20485;-73
2021/09/13 12:48:37;;;;;;;2.05;0.00;;;23.00;99.90;;;;;;5119585;28;20437;-72
2021/09/13 12:51:03;;;;;;;1.40;0.17;;;23.10;99.90;;;;;;5101502;28;20027;-73
2021/09/13 12:53:30;;;;;;;0.98;0.25;;;23.10;99.90;;;;;;5119431;28;20060;-73
2021/09/13 12:56:13;;;;;;;0.20;0.00;;;22.80;99.90;;;;;;5101119;28;20090;-73
2021/09/13 12:58:38;;;;;;;0.22;0.00;;;22.60;99.90;;;;;;5119686;28;20088;-73
2021/09/13 13:01:05;;;;;;;1.55;0.00;;;22.30;99.90;;;;;;5100909;28;20015;-72